sensor_id;sensor_type;location;lat;lon;timestamp;P1;durP1;ratioP1;P2;durP2;ratioP2
1567;SDS011;777;47.156;8.326;2023-08-21T00:02:15;9.07;;;7.38;;
1567;SDS011;777;47.156;8.326;2023-08-21T00:04:42;8.88;;;6.70;;
1567;SDS011;777;47.156;8.326;2023-08-21T00:07:09;10.40;;;7.00;;
1567;SDS011;777;47.156;8.326;2023-08-21T00:09:36;11.82;;;6.75;;
1567;SDS011;777;47.156;8.326;2023-08-21T00:12:04;8.60;;;6.72;;
1567;SDS011;777;47.156;8.326;2023-08-21T00:14:32;9.38;;;7.28;;
1567;SDS011;777;47.156;8.326;2023-08-21T00:17:01;7.57;;;6.88;;
1567;SDS011;777;47.156;8.326;2023-08-21T00:19:28;11.98;;;6.90;;
1567;SDS011;777;47.156;8.326;2023-08-21T00:21:55;12.63;;;7.68;;
1567;SDS011;777;47.156;8.326;2023-08-21T00:24:23;8.10;;;7.30;;
1567;SDS011;777;47.156;8.326;2023-08-21T00:26:50;10.98;;;7.38;;
1567;SDS011;777;47.156;8.326;2023-08-21T00:29:17;7.78;;;6.85;;
1567;SDS011;777;47.156;8.326;2023-08-21T00:31:44;8.98;;;7.47;;
1567;SDS011;777;47.156;8.326;2023-08-21T00:34:12;7.45;;;6.75;;
1567;SDS011;777;47.156;8.326;2023-08-21T00:36:40;10.00;;;7.32;;
1567;SDS011;777;47.156;8.326;2023-08-21T00:39:07;10.18;;;7.60;;
1567;SDS011;777;47.156;8.326;2023-08-21T00:41:34;11.25;;;6.80;;
1567;SDS011;777;47.156;8.326;2023-08-21T00:44:01;10.13;;;7.47;;
1567;SDS011;777;47.156;8.326;2023-08-21T00:46:29;9.43;;;6.97;;
1567;SDS011;777;47.156;8.326;2023-08-21T00:48:56;11.15;;;7.30;;
1567;SDS011;777;47.156;8.326;2023-08-21T00:51:25;10.43;;;7.47;;
1567;SDS011;777;47.156;8.326;2023-08-21T00:53:53;13.25;;;7.85;;
1567;SDS011;777;47.156;8.326;2023-08-21T00:56:20;10.93;;;7.95;;
1567;SDS011;777;47.156;8.326;2023-08-21T00:58:47;12.63;;;7.00;;
1567;SDS011;777;47.156;8.326;2023-08-21T01:01:14;9.85;;;7.95;;
1567;SDS011;777;47.156;8.326;2023-08-21T01:03:44;10.65;;;7.18;;
1567;SDS011;777;47.156;8.326;2023-08-21T01:06:11;8.65;;;7.25;;
1567;SDS011;777;47.156;8.326;2023-08-21T01:08:41;10.50;;;7.05;;
1567;SDS011;777;47.156;8.326;2023-08-21T01:11:17;8.30;;;7.07;;
1567;SDS011;777;47.156;8.326;2023-08-21T01:13:50;8.07;;;7.28;;
1567;SDS011;777;47.156;8.326;2023-08-21T01:16:21;8.45;;;7.20;;
1567;SDS011;777;47.156;8.326;2023-08-21T01:18:51;8.25;;;7.00;;
1567;SDS011;777;47.156;8.326;2023-08-21T01:21:20;11.15;;;8.18;;
1567;SDS011;777;47.156;8.326;2023-08-21T01:23:48;9.93;;;7.43;;
1567;SDS011;777;47.156;8.326;2023-08-21T01:26:15;12.68;;;7.65;;
1567;SDS011;777;47.156;8.326;2023-08-21T01:28:42;14.40;;;8.27;;
1567;SDS011;777;47.156;8.326;2023-08-21T01:31:11;11.88;;;7.65;;
1567;SDS011;777;47.156;8.326;2023-08-21T01:33:45;11.63;;;8.20;;
1567;SDS011;777;47.156;8.326;2023-08-21T01:36:14;12.93;;;7.78;;
1567;SDS011;777;47.156;8.326;2023-08-21T01:38:41;10.90;;;7.50;;
1567;SDS011;777;47.156;8.326;2023-08-21T01:41:12;8.77;;;7.88;;
1567;SDS011;777;47.156;8.326;2023-08-21T01:43:39;12.68;;;7.43;;
1567;SDS011;777;47.156;8.326;2023-08-21T01:46:07;10.02;;;7.88;;
1567;SDS011;777;47.156;8.326;2023-08-21T01:48:35;11.75;;;8.43;;
1567;SDS011;777;47.156;8.326;2023-08-21T01:51:02;9.88;;;8.55;;
1567;SDS011;777;47.156;8.326;2023-08-21T01:53:29;17.33;;;8.25;;
1567;SDS011;777;47.156;8.326;2023-08-21T01:55:56;11.15;;;8.25;;
1567;SDS011;777;47.156;8.326;2023-08-21T01:58:25;9.95;;;7.30;;
1567;SDS011;777;47.156;8.326;2023-08-21T02:00:52;10.68;;;7.82;;
1567;SDS011;777;47.156;8.326;2023-08-21T02:03:19;11.45;;;8.40;;
1567;SDS011;777;47.156;8.326;2023-08-21T02:05:46;8.80;;;7.50;;
1567;SDS011;777;47.156;8.326;2023-08-21T02:08:13;8.52;;;7.38;;
1567;SDS011;777;47.156;8.326;2023-08-21T02:10:48;10.75;;;7.97;;
1567;SDS011;777;47.156;8.326;2023-08-21T02:13:15;9.18;;;8.27;;
1567;SDS011;777;47.156;8.326;2023-08-21T02:15:44;8.98;;;8.02;;
1567;SDS011;777;47.156;8.326;2023-08-21T02:18:11;10.63;;;7.88;;
1567;SDS011;777;47.156;8.326;2023-08-21T02:20:38;9.45;;;8.43;;
1567;SDS011;777;47.156;8.326;2023-08-21T02:23:05;10.55;;;8.55;;
1567;SDS011;777;47.156;8.326;2023-08-21T02:25:32;10.32;;;8.18;;
1567;SDS011;777;47.156;8.326;2023-08-21T02:27:59;9.02;;;8.00;;
1567;SDS011;777;47.156;8.326;2023-08-21T02:30:27;10.48;;;8.10;;
1567;SDS011;777;47.156;8.326;2023-08-21T02:32:57;8.50;;;7.55;;
1567;SDS011;777;47.156;8.326;2023-08-21T02:35:24;10.57;;;8.40;;
1567;SDS011;777;47.156;8.326;2023-08-21T02:37:51;9.38;;;7.75;;
1567;SDS011;777;47.156;8.326;2023-08-21T02:40:18;8.27;;;7.47;;
1567;SDS011;777;47.156;8.326;2023-08-21T02:42:45;10.15;;;7.63;;
1567;SDS011;777;47.156;8.326;2023-08-21T02:45:12;10.55;;;8.27;;
1567;SDS011;777;47.156;8.326;2023-08-21T02:47:40;11.13;;;8.63;;
1567;SDS011;777;47.156;8.326;2023-08-21T02:50:10;8.85;;;7.95;;
1567;SDS011;777;47.156;8.326;2023-08-21T02:52:37;11.07;;;8.10;;
1567;SDS011;777;47.156;8.326;2023-08-21T02:55:05;10.52;;;9.45;;
1567;SDS011;777;47.156;8.326;2023-08-21T02:57:32;15.60;;;7.72;;
1567;SDS011;777;47.156;8.326;2023-08-21T02:59:59;10.80;;;8.23;;
1567;SDS011;777;47.156;8.326;2023-08-21T03:02:26;9.48;;;8.35;;
1567;SDS011;777;47.156;8.326;2023-08-21T03:04:53;10.20;;;7.95;;
1567;SDS011;777;47.156;8.326;2023-08-21T03:07:22;14.50;;;8.55;;
1567;SDS011;777;47.156;8.326;2023-08-21T03:09:49;13.43;;;8.45;;
1567;SDS011;777;47.156;8.326;2023-08-21T03:12:16;9.40;;;8.45;;
1567;SDS011;777;47.156;8.326;2023-08-21T03:14:45;12.13;;;9.40;;
1567;SDS011;777;47.156;8.326;2023-08-21T03:17:12;13.98;;;9.10;;
1567;SDS011;777;47.156;8.326;2023-08-21T03:19:40;9.85;;;8.52;;
1567;SDS011;777;47.156;8.326;2023-08-21T03:22:07;12.57;;;9.13;;
1567;SDS011;777;47.156;8.326;2023-08-21T03:24:35;11.10;;;9.15;;
1567;SDS011;777;47.156;8.326;2023-08-21T03:27:02;10.50;;;9.30;;
1567;SDS011;777;47.156;8.326;2023-08-21T03:29:30;14.85;;;9.25;;
1567;SDS011;777;47.156;8.326;2023-08-21T03:31:57;8.13;;;7.30;;
1567;SDS011;777;47.156;8.326;2023-08-21T03:34:25;13.50;;;8.98;;
1567;SDS011;777;47.156;8.326;2023-08-21T03:36:56;11.18;;;9.02;;
1567;SDS011;777;47.156;8.326;2023-08-21T03:39:24;14.27;;;9.45;;
1567;SDS011;777;47.156;8.326;2023-08-21T03:41:52;13.20;;;9.35;;
1567;SDS011;777;47.156;8.326;2023-08-21T03:44:20;10.10;;;9.10;;
1567;SDS011;777;47.156;8.326;2023-08-21T03:46:47;10.52;;;9.05;;
1567;SDS011;777;47.156;8.326;2023-08-21T03:49:14;13.88;;;9.45;;
1567;SDS011;777;47.156;8.326;2023-08-21T03:51:41;11.00;;;9.90;;
1567;SDS011;777;47.156;8.326;2023-08-21T03:54:08;10.77;;;9.00;;
1567;SDS011;777;47.156;8.326;2023-08-21T03:56:36;12.02;;;9.00;;
1567;SDS011;777;47.156;8.326;2023-08-21T03:59:04;10.45;;;9.32;;
1567;SDS011;777;47.156;8.326;2023-08-21T04:01:31;14.27;;;9.63;;
1567;SDS011;777;47.156;8.326;2023-08-21T04:03:58;10.30;;;9.20;;
1567;SDS011;777;47.156;8.326;2023-08-21T04:06:25;11.52;;;9.35;;
1567;SDS011;777;47.156;8.326;2023-08-21T04:08:52;12.07;;;9.05;;
1567;SDS011;777;47.156;8.326;2023-08-21T04:11:20;11.75;;;9.40;;
1567;SDS011;777;47.156;8.326;2023-08-21T04:13:47;11.90;;;9.52;;
1567;SDS011;777;47.156;8.326;2023-08-21T04:16:15;14.38;;;9.32;;
1567;SDS011;777;47.156;8.326;2023-08-21T04:18:43;14.30;;;10.90;;
1567;SDS011;777;47.156;8.326;2023-08-21T04:21:10;12.40;;;10.77;;
1567;SDS011;777;47.156;8.326;2023-08-21T04:23:37;12.95;;;10.40;;
1567;SDS011;777;47.156;8.326;2023-08-21T04:26:04;11.45;;;10.25;;
1567;SDS011;777;47.156;8.326;2023-08-21T04:28:32;14.23;;;10.80;;
1567;SDS011;777;47.156;8.326;2023-08-21T04:31:01;13.23;;;10.07;;
1567;SDS011;777;47.156;8.326;2023-08-21T04:33:32;17.63;;;10.10;;
1567;SDS011;777;47.156;8.326;2023-08-21T04:36:00;16.30;;;10.70;;
1567;SDS011;777;47.156;8.326;2023-08-21T04:38:27;10.77;;;9.13;;
1567;SDS011;777;47.156;8.326;2023-08-21T04:40:54;17.45;;;10.48;;
1567;SDS011;777;47.156;8.326;2023-08-21T04:43:22;16.33;;;10.10;;
1567;SDS011;777;47.156;8.326;2023-08-21T04:45:50;13.18;;;9.32;;
1567;SDS011;777;47.156;8.326;2023-08-21T04:48:20;15.80;;;9.95;;
1567;SDS011;777;47.156;8.326;2023-08-21T04:50:50;12.38;;;10.13;;
1567;SDS011;777;47.156;8.326;2023-08-21T04:53:17;14.52;;;9.93;;
1567;SDS011;777;47.156;8.326;2023-08-21T04:55:44;12.48;;;10.35;;
1567;SDS011;777;47.156;8.326;2023-08-21T04:58:12;13.13;;;10.10;;
1567;SDS011;777;47.156;8.326;2023-08-21T05:00:40;13.82;;;11.07;;
1567;SDS011;777;47.156;8.326;2023-08-21T05:03:07;12.85;;;9.80;;
1567;SDS011;777;47.156;8.326;2023-08-21T05:05:35;11.07;;;9.25;;
1567;SDS011;777;47.156;8.326;2023-08-21T05:08:03;10.48;;;9.38;;
1567;SDS011;777;47.156;8.326;2023-08-21T05:10:34;13.52;;;9.43;;
1567;SDS011;777;47.156;8.326;2023-08-21T05:13:01;12.40;;;9.82;;
1567;SDS011;777;47.156;8.326;2023-08-21T05:15:30;13.00;;;10.70;;
1567;SDS011;777;47.156;8.326;2023-08-21T05:17:58;12.10;;;10.73;;
1567;SDS011;777;47.156;8.326;2023-08-21T05:20:25;12.43;;;10.00;;
1567;SDS011;777;47.156;8.326;2023-08-21T05:22:52;12.65;;;10.05;;
1567;SDS011;777;47.156;8.326;2023-08-21T05:25:20;12.02;;;10.20;;
1567;SDS011;777;47.156;8.326;2023-08-21T05:27:47;12.43;;;9.43;;
1567;SDS011;777;47.156;8.326;2023-08-21T05:30:14;14.00;;;9.20;;
1567;SDS011;777;47.156;8.326;2023-08-21T05:32:41;13.57;;;10.63;;
1567;SDS011;777;47.156;8.326;2023-08-21T05:35:09;11.52;;;10.07;;
1567;SDS011;777;47.156;8.326;2023-08-21T05:37:36;12.57;;;9.82;;
1567;SDS011;777;47.156;8.326;2023-08-21T05:40:04;14.05;;;9.48;;
1567;SDS011;777;47.156;8.326;2023-08-21T05:42:35;13.48;;;10.43;;
1567;SDS011;777;47.156;8.326;2023-08-21T05:45:02;10.88;;;9.77;;
1567;SDS011;777;47.156;8.326;2023-08-21T05:47:32;12.73;;;9.52;;
1567;SDS011;777;47.156;8.326;2023-08-21T05:49:59;16.33;;;9.82;;
1567;SDS011;777;47.156;8.326;2023-08-21T05:52:26;13.25;;;9.40;;
1567;SDS011;777;47.156;8.326;2023-08-21T05:54:53;13.73;;;9.90;;
1567;SDS011;777;47.156;8.326;2023-08-21T05:57:20;11.43;;;9.82;;
1567;SDS011;777;47.156;8.326;2023-08-21T05:59:49;11.45;;;10.27;;
1567;SDS011;777;47.156;8.326;2023-08-21T06:02:16;13.15;;;10.68;;
1567;SDS011;777;47.156;8.326;2023-08-21T06:04:43;16.67;;;10.60;;
1567;SDS011;777;47.156;8.326;2023-08-21T06:07:11;12.88;;;10.02;;
1567;SDS011;777;47.156;8.326;2023-08-21T06:09:38;11.07;;;9.52;;
1567;SDS011;777;47.156;8.326;2023-08-21T06:12:05;11.27;;;9.75;;
1567;SDS011;777;47.156;8.326;2023-08-21T06:14:34;10.98;;;9.38;;
1567;SDS011;777;47.156;8.326;2023-08-21T06:17:03;11.25;;;9.82;;
1567;SDS011;777;47.156;8.326;2023-08-21T06:19:31;11.00;;;9.18;;
1567;SDS011;777;47.156;8.326;2023-08-21T06:21:58;12.98;;;10.18;;
1567;SDS011;777;47.156;8.326;2023-08-21T06:24:25;12.02;;;9.50;;
1567;SDS011;777;47.156;8.326;2023-08-21T06:26:57;10.25;;;9.25;;
1567;SDS011;777;47.156;8.326;2023-08-21T06:29:25;12.73;;;9.23;;
1567;SDS011;777;47.156;8.326;2023-08-21T06:31:52;12.57;;;8.90;;
1567;SDS011;777;47.156;8.326;2023-08-21T06:34:22;13.15;;;8.50;;
1567;SDS011;777;47.156;8.326;2023-08-21T06:36:49;10.23;;;8.52;;
1567;SDS011;777;47.156;8.326;2023-08-21T06:39:16;10.68;;;7.45;;
1567;SDS011;777;47.156;8.326;2023-08-21T06:41:43;8.35;;;7.47;;
1567;SDS011;777;47.156;8.326;2023-08-21T06:46:43;9.52;;;7.97;;
1567;SDS011;777;47.156;8.326;2023-08-21T06:49:10;8.93;;;7.95;;
1567;SDS011;777;47.156;8.326;2023-08-21T06:51:39;9.77;;;7.50;;
1567;SDS011;777;47.156;8.326;2023-08-21T06:54:06;11.90;;;8.05;;
1567;SDS011;777;47.156;8.326;2023-08-21T06:56:33;9.88;;;6.85;;
1567;SDS011;777;47.156;8.326;2023-08-21T06:59:00;8.38;;;6.30;;
1567;SDS011;777;47.156;8.326;2023-08-21T07:01:27;11.77;;;6.95;;
1567;SDS011;777;47.156;8.326;2023-08-21T07:03:54;10.75;;;5.88;;
1567;SDS011;777;47.156;8.326;2023-08-21T07:06:21;6.82;;;5.30;;
1567;SDS011;777;47.156;8.326;2023-08-21T07:08:50;7.35;;;5.65;;
1567;SDS011;777;47.156;8.326;2023-08-21T07:11:17;9.38;;;5.88;;
1567;SDS011;777;47.156;8.326;2023-08-21T07:13:44;9.63;;;6.47;;
1567;SDS011;777;47.156;8.326;2023-08-21T07:16:11;9.18;;;5.82;;
1567;SDS011;777;47.156;8.326;2023-08-21T07:18:38;12.48;;;5.60;;
1567;SDS011;777;47.156;8.326;2023-08-21T07:21:06;8.35;;;5.65;;
1567;SDS011;777;47.156;8.326;2023-08-21T07:23:33;9.38;;;5.45;;
1567;SDS011;777;47.156;8.326;2023-08-21T07:26:01;8.05;;;5.88;;
1567;SDS011;777;47.156;8.326;2023-08-21T07:28:30;10.55;;;5.80;;
1567;SDS011;777;47.156;8.326;2023-08-21T07:30:57;9.07;;;6.00;;
1567;SDS011;777;47.156;8.326;2023-08-21T07:33:25;11.88;;;5.38;;
1567;SDS011;777;47.156;8.326;2023-08-21T07:36:00;7.45;;;6.07;;
1567;SDS011;777;47.156;8.326;2023-08-21T07:38:27;7.55;;;5.70;;
1567;SDS011;777;47.156;8.326;2023-08-21T07:41:03;8.57;;;6.07;;
1567;SDS011;777;47.156;8.326;2023-08-21T07:43:30;9.13;;;6.90;;
1567;SDS011;777;47.156;8.326;2023-08-21T07:45:58;7.90;;;6.90;;
1567;SDS011;777;47.156;8.326;2023-08-21T07:48:28;11.77;;;7.13;;
1567;SDS011;777;47.156;8.326;2023-08-21T07:50:55;10.50;;;7.00;;
1567;SDS011;777;47.156;8.326;2023-08-21T07:53:22;8.68;;;6.82;;
1567;SDS011;777;47.156;8.326;2023-08-21T07:55:50;14.18;;;7.47;;
1567;SDS011;777;47.156;8.326;2023-08-21T07:58:18;13.43;;;7.22;;
1567;SDS011;777;47.156;8.326;2023-08-21T08:00:45;12.60;;;8.13;;
1567;SDS011;777;47.156;8.326;2023-08-21T08:03:13;8.82;;;7.15;;
1567;SDS011;777;47.156;8.326;2023-08-21T08:05:40;9.00;;;7.40;;
1567;SDS011;777;47.156;8.326;2023-08-21T08:08:08;11.07;;;8.52;;
1567;SDS011;777;47.156;8.326;2023-08-21T08:10:36;8.70;;;7.78;;
1567;SDS011;777;47.156;8.326;2023-08-21T08:13:04;10.70;;;8.25;;
1567;SDS011;777;47.156;8.326;2023-08-21T08:15:33;10.25;;;7.68;;
1567;SDS011;777;47.156;8.326;2023-08-21T08:18:01;12.02;;;7.97;;
1567;SDS011;777;47.156;8.326;2023-08-21T08:20:28;9.70;;;8.30;;
1567;SDS011;777;47.156;8.326;2023-08-21T08:22:55;11.55;;;8.23;;
1567;SDS011;777;47.156;8.326;2023-08-21T08:25:22;11.75;;;8.65;;
1567;SDS011;777;47.156;8.326;2023-08-21T08:27:51;11.48;;;7.68;;
1567;SDS011;777;47.156;8.326;2023-08-21T08:30:18;12.20;;;7.93;;
1567;SDS011;777;47.156;8.326;2023-08-21T08:32:46;11.63;;;8.82;;
1567;SDS011;777;47.156;8.326;2023-08-21T08:35:13;10.90;;;8.65;;
1567;SDS011;777;47.156;8.326;2023-08-21T08:37:41;12.25;;;8.60;;
1567;SDS011;777;47.156;8.326;2023-08-21T08:40:09;8.98;;;8.07;;
1567;SDS011;777;47.156;8.326;2023-08-21T08:42:38;9.98;;;8.85;;
1567;SDS011;777;47.156;8.326;2023-08-21T08:45:06;9.65;;;8.65;;
1567;SDS011;777;47.156;8.326;2023-08-21T08:47:34;11.52;;;8.75;;
1567;SDS011;777;47.156;8.326;2023-08-21T08:50:03;9.32;;;7.88;;
1567;SDS011;777;47.156;8.326;2023-08-21T08:52:34;11.70;;;7.65;;
1567;SDS011;777;47.156;8.326;2023-08-21T08:55:02;8.82;;;6.50;;
1567;SDS011;777;47.156;8.326;2023-08-21T08:57:32;10.25;;;8.15;;
1567;SDS011;777;47.156;8.326;2023-08-21T08:59:59;13.57;;;7.55;;
1567;SDS011;777;47.156;8.326;2023-08-21T09:02:29;8.23;;;6.63;;
1567;SDS011;777;47.156;8.326;2023-08-21T09:04:56;9.05;;;6.97;;
1567;SDS011;777;47.156;8.326;2023-08-21T09:07:25;7.43;;;6.60;;
1567;SDS011;777;47.156;8.326;2023-08-21T09:09:52;9.48;;;7.15;;
1567;SDS011;777;47.156;8.326;2023-08-21T09:12:19;12.68;;;7.20;;
1567;SDS011;777;47.156;8.326;2023-08-21T09:14:46;10.52;;;7.68;;
1567;SDS011;777;47.156;8.326;2023-08-21T09:17:14;8.57;;;6.93;;
1567;SDS011;777;47.156;8.326;2023-08-21T09:19:42;11.98;;;7.13;;
1567;SDS011;777;47.156;8.326;2023-08-21T09:22:09;9.50;;;7.75;;
1567;SDS011;777;47.156;8.326;2023-08-21T09:24:39;10.93;;;7.57;;
1567;SDS011;777;47.156;8.326;2023-08-21T09:27:12;9.13;;;7.03;;
1567;SDS011;777;47.156;8.326;2023-08-21T09:29:41;10.55;;;6.15;;
1567;SDS011;777;47.156;8.326;2023-08-21T09:32:09;11.80;;;6.95;;
1567;SDS011;777;47.156;8.326;2023-08-21T09:34:36;10.40;;;6.13;;
1567;SDS011;777;47.156;8.326;2023-08-21T09:37:07;10.32;;;6.93;;
1567;SDS011;777;47.156;8.326;2023-08-21T09:39:36;9.60;;;6.43;;
1567;SDS011;777;47.156;8.326;2023-08-21T09:42:07;9.68;;;5.80;;
1567;SDS011;777;47.156;8.326;2023-08-21T09:44:36;7.77;;;5.77;;
1567;SDS011;777;47.156;8.326;2023-08-21T09:47:04;12.23;;;6.68;;
1567;SDS011;777;47.156;8.326;2023-08-21T09:49:34;9.15;;;6.00;;
1567;SDS011;777;47.156;8.326;2023-08-21T09:52:04;11.55;;;6.80;;
1567;SDS011;777;47.156;8.326;2023-08-21T09:54:32;7.32;;;5.90;;
1567;SDS011;777;47.156;8.326;2023-08-21T09:57:01;7.82;;;5.90;;
1567;SDS011;777;47.156;8.326;2023-08-21T09:59:30;9.07;;;5.50;;
1567;SDS011;777;47.156;8.326;2023-08-21T10:01:58;8.13;;;5.90;;
1567;SDS011;777;47.156;8.326;2023-08-21T10:04:27;8.30;;;6.10;;
1567;SDS011;777;47.156;8.326;2023-08-21T10:06:55;9.40;;;5.50;;
1567;SDS011;777;47.156;8.326;2023-08-21T10:09:25;7.53;;;5.90;;
1567;SDS011;777;47.156;8.326;2023-08-21T10:11:55;7.47;;;5.72;;
1567;SDS011;777;47.156;8.326;2023-08-21T10:14:23;8.63;;;5.60;;
1567;SDS011;777;47.156;8.326;2023-08-21T10:16:52;10.70;;;5.80;;
1567;SDS011;777;47.156;8.326;2023-08-21T10:19:20;7.15;;;5.47;;
1567;SDS011;777;47.156;8.326;2023-08-21T10:21:47;7.20;;;5.43;;
1567;SDS011;777;47.156;8.326;2023-08-21T10:24:25;6.28;;;5.68;;
1567;SDS011;777;47.156;8.326;2023-08-21T10:26:57;7.97;;;5.25;;
1567;SDS011;777;47.156;8.326;2023-08-21T10:29:25;10.48;;;5.10;;
1567;SDS011;777;47.156;8.326;2023-08-21T10:32:00;6.57;;;4.82;;
1567;SDS011;777;47.156;8.326;2023-08-21T10:34:31;7.70;;;5.50;;
1567;SDS011;777;47.156;8.326;2023-08-21T10:37:04;7.93;;;5.15;;
1567;SDS011;777;47.156;8.326;2023-08-21T10:39:35;6.93;;;5.25;;
1567;SDS011;777;47.156;8.326;2023-08-21T10:42:05;8.73;;;4.75;;
1567;SDS011;777;47.156;8.326;2023-08-21T10:44:36;10.15;;;5.07;;
1567;SDS011;777;47.156;8.326;2023-08-21T10:47:16;8.10;;;5.20;;
1567;SDS011;777;47.156;8.326;2023-08-21T10:49:45;10.20;;;5.65;;
1567;SDS011;777;47.156;8.326;2023-08-21T10:52:13;8.60;;;5.30;;
1567;SDS011;777;47.156;8.326;2023-08-21T10:54:45;6.43;;;5.53;;
1567;SDS011;777;47.156;8.326;2023-08-21T10:57:12;7.05;;;5.68;;
1567;SDS011;777;47.156;8.326;2023-08-21T10:59:48;6.38;;;5.07;;
1567;SDS011;777;47.156;8.326;2023-08-21T11:02:18;7.63;;;5.60;;
1567;SDS011;777;47.156;8.326;2023-08-21T11:04:45;13.02;;;5.80;;
1567;SDS011;777;47.156;8.326;2023-08-21T11:07:12;7.40;;;5.82;;
1567;SDS011;777;47.156;8.326;2023-08-21T11:09:40;6.65;;;5.78;;
1567;SDS011;777;47.156;8.326;2023-08-21T11:12:07;8.85;;;5.50;;
1567;SDS011;777;47.156;8.326;2023-08-21T11:14:36;7.57;;;5.25;;
1567;SDS011;777;47.156;8.326;2023-08-21T11:17:05;7.10;;;5.30;;
1567;SDS011;777;47.156;8.326;2023-08-21T11:19:36;6.78;;;5.85;;
1567;SDS011;777;47.156;8.326;2023-08-21T11:22:04;6.95;;;5.47;;
1567;SDS011;777;47.156;8.326;2023-08-21T11:24:42;10.05;;;6.47;;
1567;SDS011;777;47.156;8.326;2023-08-21T11:27:11;9.15;;;5.85;;
1567;SDS011;777;47.156;8.326;2023-08-21T11:29:39;8.13;;;6.05;;
1567;SDS011;777;47.156;8.326;2023-08-21T11:32:08;9.98;;;6.45;;
1567;SDS011;777;47.156;8.326;2023-08-21T11:34:46;8.88;;;6.25;;
1567;SDS011;777;47.156;8.326;2023-08-21T11:37:15;14.65;;;6.45;;
1567;SDS011;777;47.156;8.326;2023-08-21T11:39:43;10.73;;;5.90;;
1567;SDS011;777;47.156;8.326;2023-08-21T11:42:12;9.30;;;5.97;;
1567;SDS011;777;47.156;8.326;2023-08-21T11:44:40;9.82;;;6.38;;
1567;SDS011;777;47.156;8.326;2023-08-21T11:47:08;10.60;;;5.97;;
1567;SDS011;777;47.156;8.326;2023-08-21T11:49:38;9.10;;;6.10;;
1567;SDS011;777;47.156;8.326;2023-08-21T11:52:09;11.13;;;6.82;;
1567;SDS011;777;47.156;8.326;2023-08-21T11:54:37;10.48;;;6.30;;
1567;SDS011;777;47.156;8.326;2023-08-21T11:57:11;7.30;;;6.00;;
1567;SDS011;777;47.156;8.326;2023-08-21T11:59:39;5.47;;;4.97;;
1567;SDS011;777;47.156;8.326;2023-08-21T12:02:10;8.00;;;6.38;;
1567;SDS011;777;47.156;8.326;2023-08-21T12:04:40;8.73;;;6.00;;
1567;SDS011;777;47.156;8.326;2023-08-21T12:07:08;11.80;;;6.18;;
1567;SDS011;777;47.156;8.326;2023-08-21T12:09:35;8.05;;;5.60;;
1567;SDS011;777;47.156;8.326;2023-08-21T12:12:03;10.38;;;5.47;;
1567;SDS011;777;47.156;8.326;2023-08-21T12:14:30;8.40;;;5.60;;
1567;SDS011;777;47.156;8.326;2023-08-21T12:16:57;6.40;;;5.05;;
1567;SDS011;777;47.156;8.326;2023-08-21T12:19:25;13.18;;;5.50;;
1567;SDS011;777;47.156;8.326;2023-08-21T12:21:52;10.00;;;5.18;;
1567;SDS011;777;47.156;8.326;2023-08-21T12:24:21;11.43;;;5.05;;
1567;SDS011;777;47.156;8.326;2023-08-21T12:26:48;8.35;;;4.70;;
1567;SDS011;777;47.156;8.326;2023-08-21T12:29:15;7.47;;;3.78;;
1567;SDS011;777;47.156;8.326;2023-08-21T12:31:42;5.93;;;3.50;;
1567;SDS011;777;47.156;8.326;2023-08-21T12:34:09;6.63;;;4.20;;
1567;SDS011;777;47.156;8.326;2023-08-21T12:36:36;7.07;;;4.88;;
1567;SDS011;777;47.156;8.326;2023-08-21T12:39:03;5.97;;;3.60;;
1567;SDS011;777;47.156;8.326;2023-08-21T12:41:32;6.95;;;4.05;;
1567;SDS011;777;47.156;8.326;2023-08-21T12:43:59;9.15;;;4.03;;
1567;SDS011;777;47.156;8.326;2023-08-21T12:46:28;6.22;;;3.50;;
1567;SDS011;777;47.156;8.326;2023-08-21T12:48:56;8.35;;;3.90;;
1567;SDS011;777;47.156;8.326;2023-08-21T12:51:24;6.63;;;3.70;;
1567;SDS011;777;47.156;8.326;2023-08-21T12:53:51;6.65;;;3.72;;
1567;SDS011;777;47.156;8.326;2023-08-21T12:56:18;11.40;;;3.90;;
1567;SDS011;777;47.156;8.326;2023-08-21T12:58:47;6.85;;;3.75;;
1567;SDS011;777;47.156;8.326;2023-08-21T13:01:14;7.32;;;3.47;;
1567;SDS011;777;47.156;8.326;2023-08-21T13:03:43;6.05;;;3.92;;
1567;SDS011;777;47.156;8.326;2023-08-21T13:06:11;11.00;;;3.97;;
1567;SDS011;777;47.156;8.326;2023-08-21T13:08:38;6.97;;;3.47;;
1567;SDS011;777;47.156;8.326;2023-08-21T13:11:06;7.25;;;3.50;;
1567;SDS011;777;47.156;8.326;2023-08-21T13:13:35;5.93;;;3.90;;
1567;SDS011;777;47.156;8.326;2023-08-21T13:16:03;9.25;;;3.53;;
1567;SDS011;777;47.156;8.326;2023-08-21T13:18:31;4.80;;;2.78;;
1567;SDS011;777;47.156;8.326;2023-08-21T13:20:58;5.75;;;3.20;;
1567;SDS011;777;47.156;8.326;2023-08-21T13:23:28;10.60;;;3.03;;
1567;SDS011;777;47.156;8.326;2023-08-21T13:25:56;4.50;;;2.90;;
1567;SDS011;777;47.156;8.326;2023-08-21T13:28:23;3.88;;;2.30;;
1567;SDS011;777;47.156;8.326;2023-08-21T13:30:50;3.33;;;2.40;;
1567;SDS011;777;47.156;8.326;2023-08-21T13:33:19;5.28;;;3.22;;
1567;SDS011;777;47.156;8.326;2023-08-21T13:35:46;4.65;;;2.38;;
1567;SDS011;777;47.156;8.326;2023-08-21T13:38:14;7.28;;;2.78;;
1567;SDS011;777;47.156;8.326;2023-08-21T13:40:41;4.55;;;2.70;;
1567;SDS011;777;47.156;8.326;2023-08-21T13:43:09;4.00;;;2.55;;
1567;SDS011;777;47.156;8.326;2023-08-21T13:45:37;5.72;;;2.80;;
1567;SDS011;777;47.156;8.326;2023-08-21T13:48:06;4.60;;;2.45;;
1567;SDS011;777;47.156;8.326;2023-08-21T13:50:35;6.70;;;2.70;;
1567;SDS011;777;47.156;8.326;2023-08-21T13:53:03;4.57;;;2.40;;
1567;SDS011;777;47.156;8.326;2023-08-21T13:55:30;5.43;;;2.42;;
1567;SDS011;777;47.156;8.326;2023-08-21T13:57:58;6.13;;;2.30;;
1567;SDS011;777;47.156;8.326;2023-08-21T14:00:26;7.05;;;2.10;;
1567;SDS011;777;47.156;8.326;2023-08-21T14:02:54;4.43;;;1.80;;
1567;SDS011;777;47.156;8.326;2023-08-21T14:05:22;5.15;;;2.20;;
1567;SDS011;777;47.156;8.326;2023-08-21T14:07:55;5.10;;;2.05;;
1567;SDS011;777;47.156;8.326;2023-08-21T14:10:23;5.03;;;2.03;;
1567;SDS011;777;47.156;8.326;2023-08-21T14:12:51;4.43;;;2.15;;
1567;SDS011;777;47.156;8.326;2023-08-21T14:15:18;5.53;;;2.53;;
1567;SDS011;777;47.156;8.326;2023-08-21T14:17:45;5.15;;;2.25;;
1567;SDS011;777;47.156;8.326;2023-08-21T14:20:14;3.47;;;2.10;;
1567;SDS011;777;47.156;8.326;2023-08-21T14:22:41;5.13;;;2.50;;
1567;SDS011;777;47.156;8.326;2023-08-21T14:25:11;4.95;;;2.47;;
1567;SDS011;777;47.156;8.326;2023-08-21T14:27:38;6.97;;;2.83;;
1567;SDS011;777;47.156;8.326;2023-08-21T14:30:05;5.68;;;3.05;;
1567;SDS011;777;47.156;8.326;2023-08-21T14:32:33;7.03;;;2.95;;
1567;SDS011;777;47.156;8.326;2023-08-21T14:35:02;8.10;;;3.40;;
1567;SDS011;777;47.156;8.326;2023-08-21T14:37:37;7.13;;;3.97;;
1567;SDS011;777;47.156;8.326;2023-08-21T14:40:06;6.13;;;3.63;;
1567;SDS011;777;47.156;8.326;2023-08-21T14:42:36;10.63;;;3.40;;
1567;SDS011;777;47.156;8.326;2023-08-21T14:45:03;7.00;;;3.35;;
1567;SDS011;777;47.156;8.326;2023-08-21T14:47:31;7.57;;;3.17;;
1567;SDS011;777;47.156;8.326;2023-08-21T14:49:58;6.00;;;3.33;;
1567;SDS011;777;47.156;8.326;2023-08-21T14:52:25;6.80;;;3.20;;
1567;SDS011;777;47.156;8.326;2023-08-21T14:54:52;5.10;;;2.90;;
1567;SDS011;777;47.156;8.326;2023-08-21T14:57:19;6.13;;;2.97;;
1567;SDS011;777;47.156;8.326;2023-08-21T14:59:48;6.25;;;2.97;;
1567;SDS011;777;47.156;8.326;2023-08-21T15:02:15;5.53;;;3.00;;
1567;SDS011;777;47.156;8.326;2023-08-21T15:04:42;4.43;;;2.63;;
1567;SDS011;777;47.156;8.326;2023-08-21T15:07:09;4.40;;;2.67;;
1567;SDS011;777;47.156;8.326;2023-08-21T15:09:36;6.25;;;2.60;;
1567;SDS011;777;47.156;8.326;2023-08-21T15:12:04;6.55;;;2.90;;
1567;SDS011;777;47.156;8.326;2023-08-21T15:14:31;4.55;;;2.35;;
1567;SDS011;777;47.156;8.326;2023-08-21T15:17:00;6.05;;;2.67;;
1567;SDS011;777;47.156;8.326;2023-08-21T15:19:28;5.50;;;2.65;;
1567;SDS011;777;47.156;8.326;2023-08-21T15:21:55;4.10;;;2.58;;
1567;SDS011;777;47.156;8.326;2023-08-21T15:24:22;5.22;;;2.28;;
1567;SDS011;777;47.156;8.326;2023-08-21T15:26:49;7.35;;;2.30;;
1567;SDS011;777;47.156;8.326;2023-08-21T15:29:16;4.25;;;2.40;;
1567;SDS011;777;47.156;8.326;2023-08-21T15:31:43;5.75;;;2.63;;